createdAt,value
2019-04-14T00:03:50.050Z,3.6
2019-04-14T00:09:21.216Z,8.4
2019-04-14T00:14:53.393Z,10.7
2019-04-14T00:20:24.983Z,16.8
2019-04-14T00:25:56.465Z,15.6
2019-04-14T00:31:28.534Z,18
2019-04-14T00:36:59.533Z,16.8
2019-04-14T00:42:31.978Z,15.6
2019-04-14T00:48:07.838Z,14.4
2019-04-14T00:53:34.442Z,8.4
2019-04-14T00:59:07.090Z,16.8
2019-04-14T01:04:38.271Z,8.4
2019-04-14T01:10:10.277Z,10.7
2019-04-14T01:15:50.954Z,8.4
2019-04-14T01:21:11.085Z,0
2019-04-14T01:26:42.096Z,0
2019-04-14T01:32:13.265Z,0
2019-04-14T01:37:44.208Z,7.2
2019-04-14T01:43:16.697Z,7.2
2019-04-14T01:48:47.589Z,8.4
2019-04-14T01:54:19.305Z,9.6
2019-04-14T01:59:50.980Z,16.8
2019-04-14T02:05:23.519Z,14.4
2019-04-14T02:10:54.448Z,8.4
2019-04-14T02:16:34.682Z,9.6
2019-04-14T02:21:58.424Z,8.4
2019-04-14T02:27:29.698Z,9.6
2019-04-14T02:33:31.683Z,9.6
2019-04-14T02:39:05.815Z,8.4
2019-04-14T02:44:30.038Z,8.4
2019-04-14T02:50:04.361Z,8.4
2019-04-14T02:55:29.432Z,10.7
2019-04-14T03:01:14.330Z,10.7
2019-04-14T03:06:32.882Z,11.9
2019-04-14T03:17:36.593Z,8.4
2019-04-14T03:45:14.011Z,3.6
2019-04-14T03:50:44.123Z,0
2019-04-14T03:55:54.078Z,0
2019-04-14T04:01:19.346Z,0
2019-04-14T04:06:49.467Z,0
2019-04-14T04:12:20.355Z,0
2019-04-14T04:17:51.595Z,0
2019-04-14T04:23:21.197Z,0
2019-04-14T04:28:51.857Z,0
2019-04-14T04:34:22.700Z,0
2019-04-14T04:39:53.901Z,0
2019-04-14T04:45:23.529Z,0
2019-04-14T04:50:54.193Z,0
2019-04-14T04:56:25.428Z,0
2019-04-14T05:01:55.878Z,0
2019-04-14T05:07:25.655Z,0
2019-04-14T05:12:56.521Z,0
2019-04-14T05:18:26.929Z,0
2019-04-14T05:23:58.127Z,0
2019-04-14T05:29:28.295Z,0
2019-04-14T05:34:59.153Z,0
2019-04-14T05:40:30.028Z,0
2019-04-14T05:46:01.291Z,0
2019-04-14T05:51:32.511Z,0
2019-04-14T05:57:02.367Z,0
2019-04-14T06:02:33.567Z,0
2019-04-14T06:08:03.971Z,0
2019-04-14T06:13:34.971Z,0
2019-04-14T06:19:05.952Z,0
2019-04-14T06:24:37.728Z,0
2019-04-14T06:30:07.799Z,0
2019-04-14T06:35:38.809Z,0
2019-04-14T06:41:09.880Z,0
2019-04-14T06:46:41.147Z,0
2019-04-14T06:52:12.328Z,0
2019-04-14T06:57:43.548Z,0
2019-04-14T07:03:14.922Z,0
2019-04-14T07:08:46.254Z,0
2019-04-14T07:14:17.786Z,0
2019-04-14T07:20:01.211Z,11.9
2019-04-14T07:25:22.002Z,14.4
2019-04-14T07:30:54.332Z,13.2
2019-04-14T07:36:26.779Z,13.2
2019-04-14T07:41:59.178Z,10.7
2019-04-14T07:47:31.731Z,11.9
2019-04-14T07:53:04.357Z,11.9
2019-04-14T07:58:36.985Z,10.7
2019-04-14T08:04:09.615Z,14.4
2019-04-14T08:09:42.321Z,15.6
2019-04-14T08:15:16.694Z,11.9
2019-04-14T08:20:47.998Z,16.8
2019-04-14T08:26:20.498Z,14.4
2019-04-14T08:31:53.333Z,18
2019-04-14T08:37:30.420Z,19.2
2019-04-14T08:43:02.913Z,14.4
2019-04-14T08:48:35.632Z,18
2019-04-14T08:54:08.247Z,13.2
2019-04-14T08:59:40.529Z,16.8
2019-04-14T09:05:12.827Z,20.4
2019-04-14T09:10:45.146Z,15.6
2019-04-14T09:16:17.363Z,19.2
2019-04-14T09:21:49.589Z,16.8
2019-04-14T09:27:21.824Z,16.8
2019-04-14T09:32:54.115Z,18
2019-04-14T09:38:27.547Z,15.6
2019-04-14T09:43:58.809Z,14.4
2019-04-14T09:49:31.303Z,14.4
2019-04-14T09:55:04.039Z,22.8
2019-04-14T10:00:36.927Z,22.8
2019-04-14T10:06:09.722Z,16.8
2019-04-14T10:11:48.245Z,16.8
2019-04-14T10:17:15.271Z,14.4
2019-04-14T10:22:47.295Z,7.2
2019-04-14T10:28:20.300Z,20.4
2019-04-14T10:33:53.549Z,16.8
2019-04-14T10:39:26.482Z,15.6
2019-04-14T10:44:59.431Z,18
2019-04-14T10:50:32.051Z,23.9
2019-04-14T10:56:04.739Z,27.6
2019-04-14T11:01:37.363Z,27.6
2019-04-14T11:07:09.910Z,21.5
2019-04-14T11:12:42.511Z,29.9
2019-04-14T11:18:14.982Z,20.4
2019-04-14T11:23:47.542Z,23.9
2019-04-14T11:29:19.970Z,21.5
2019-04-14T11:34:52.310Z,18
2019-04-14T11:40:24.753Z,15.6
2019-04-14T11:45:56.978Z,16.8
2019-04-14T11:51:29.412Z,15.6
2019-04-14T11:57:01.991Z,18
2019-04-14T12:02:34.502Z,14.4
2019-04-14T12:08:07.152Z,13.2
2019-04-14T12:13:39.784Z,19.2
2019-04-14T12:19:12.394Z,20.4
2019-04-14T12:24:44.831Z,22.8
2019-04-14T12:30:18.029Z,14.4
2019-04-14T12:35:49.777Z,18
2019-04-14T12:41:22.290Z,18
2019-04-14T12:46:54.753Z,13.2
2019-04-14T12:52:27.149Z,18
2019-04-14T12:57:59.568Z,16.8
2019-04-14T13:03:31.924Z,16.8
2019-04-14T13:09:04.303Z,14.4
2019-04-14T13:14:36.670Z,19.2
2019-04-14T13:20:09.083Z,23.9
2019-04-14T13:25:41.669Z,22.8
2019-04-14T13:36:46.943Z,26.4
2019-04-14T13:42:19.476Z,22.8
2019-04-14T13:47:52.118Z,21.5
2019-04-14T13:53:24.847Z,20.4
2019-04-14T13:58:57.490Z,18
2019-04-14T14:04:30.095Z,22.8
2019-04-14T14:10:02.695Z,21.5
2019-04-14T14:15:35.157Z,15.6
2019-04-14T14:21:07.694Z,15.6
2019-04-14T14:26:40.097Z,18
2019-04-14T14:32:12.509Z,22.8
2019-04-14T14:37:44.931Z,14.4
2019-04-14T14:43:17.454Z,18
2019-04-14T14:48:49.717Z,16.8
2019-04-14T14:54:22.137Z,21.5
2019-04-14T14:59:54.629Z,18
2019-04-14T15:05:27.125Z,25.1
2019-04-14T15:10:59.764Z,21.5
2019-04-14T15:16:32.397Z,23.9
2019-04-14T15:22:04.991Z,18
2019-04-14T15:27:37.494Z,19.2
2019-04-14T15:33:10.070Z,18
2019-04-14T15:38:42.662Z,18
2019-04-14T15:44:15.112Z,16.8
2019-04-14T15:49:47.509Z,11.9
2019-04-14T15:55:19.960Z,14.4
2019-04-14T16:00:52.478Z,16.8
2019-04-14T16:06:24.847Z,14.4
2019-04-14T16:11:57.125Z,16.8
2019-04-14T16:17:29.488Z,15.6
2019-04-14T16:23:01.742Z,19.2
2019-04-14T16:28:33.956Z,13.2
2019-04-14T16:34:06.121Z,16.8
2019-04-14T16:39:38.337Z,15.6
2019-04-14T16:45:10.436Z,10.7
2019-04-14T16:50:42.452Z,13.2
2019-04-14T16:56:14.513Z,14.4
2019-04-14T17:01:46.624Z,14.4
2019-04-14T17:07:18.629Z,10.7
2019-04-14T17:12:51.826Z,11.9
2019-04-14T17:18:22.700Z,13.2
2019-04-14T17:23:54.700Z,10.7
2019-04-14T17:29:26.512Z,9.6
2019-04-14T17:34:58.494Z,10.7
2019-04-14T17:40:32.756Z,11.9
2019-04-14T17:46:02.504Z,11.9
2019-04-14T17:51:34.498Z,10.7
2019-04-14T17:57:06.502Z,14.4
2019-04-14T18:02:38.485Z,11.9
2019-04-14T18:08:10.168Z,8.4
2019-04-14T18:13:41.685Z,5.9
2019-04-14T18:19:13.482Z,0
2019-04-14T18:24:44.150Z,14.4
2019-04-14T18:30:16.133Z,10.7
2019-04-14T18:35:48.072Z,11.9
2019-04-14T18:41:20.026Z,10.7
2019-04-14T18:46:52.044Z,11.9
2019-04-14T18:52:24.094Z,13.2
2019-04-14T18:57:56.394Z,13.2
2019-04-14T19:03:27.879Z,13.2
2019-04-14T19:08:59.824Z,14.4
2019-04-14T19:14:31.831Z,10.7
2019-04-14T19:20:03.676Z,8.4
2019-04-14T19:25:36.442Z,5.9
2019-04-14T19:31:07.505Z,9.6
2019-04-14T19:36:39.433Z,13.2
2019-04-14T19:42:11.387Z,14.4
2019-04-14T19:47:43.363Z,14.4
2019-04-14T19:53:15.282Z,11.9
2019-04-14T19:58:47.183Z,10.7
2019-04-14T20:04:19.108Z,9.6
2019-04-14T20:09:51.004Z,13.2
2019-04-14T20:15:22.963Z,13.2
2019-04-14T20:20:54.775Z,11.9
2019-04-14T20:26:26.710Z,9.6
2019-04-14T20:31:58.600Z,13.2
2019-04-14T20:37:30.557Z,16.8
2019-04-14T20:43:02.548Z,15.6
2019-04-14T20:48:34.374Z,15.6
2019-04-14T20:54:06.371Z,18
2019-04-14T20:59:38.232Z,16.8
2019-04-14T21:05:10.173Z,20.4
2019-04-14T21:10:42.118Z,20.4
2019-04-14T21:16:13.862Z,15.6
2019-04-14T21:21:45.816Z,18
2019-04-14T21:27:17.636Z,15.6
2019-04-14T21:32:49.522Z,16.8
2019-04-14T21:38:21.450Z,14.4
2019-04-14T21:43:53.289Z,16.8
2019-04-14T21:49:25.065Z,15.6
2019-04-14T21:54:56.967Z,15.6
2019-04-14T22:00:28.867Z,15.6
2019-04-14T22:06:00.714Z,14.4
2019-04-14T22:11:32.552Z,11.9
2019-04-14T22:17:04.349Z,13.2
2019-04-14T22:22:36.016Z,9.6
2019-04-14T22:28:07.265Z,5.9
2019-04-14T22:33:38.675Z,5.9
2019-04-14T22:39:10.377Z,7.2
2019-04-14T22:44:41.977Z,7.2
2019-04-14T22:50:12.930Z,0
2019-04-14T22:55:43.828Z,0
2019-04-14T23:01:14.825Z,0
2019-04-14T23:06:45.696Z,0
2019-04-14T23:12:16.702Z,0
2019-04-14T23:17:47.660Z,0
2019-04-14T23:23:19.139Z,5.9
2019-04-14T23:28:50.897Z,5.9
2019-04-14T23:34:22.736Z,7.2
2019-04-14T23:39:54.012Z,5.9
2019-04-14T23:45:25.485Z,9.6
2019-04-14T23:50:57.238Z,8.4
2019-04-14T23:56:28.816Z,9.6
